Time;durP1;ratioP1;P1;durP2;ratioP2;P2;SDS_P1;SDS_P2;PMS_P1;PMS_P2;Temp;Humidity;BMP_temperature;BMP_pressure;BME280_temperature;BME280_humidity;BME280_pressure;Samples;Min_cycle;Max_cycle;Signal;HPM_P1;HPM_P2
2023/10/08 00:02:52;;;;;;;5.00;1.40;;;;;;;13.75;73.21;99366.08;108227;1253;73943;-69
2023/10/08 00:05:19;;;;;;;4.00;1.60;;;;;;;13.69;73.46;99369.65;108172;1253;71256;-71
2023/10/08 00:07:45;;;;;;;5.30;1.70;;;;;;;13.65;73.65;99378.30;108076;1253;72695;-70
2023/10/08 00:10:14;;;;;;;3.50;1.50;;;;;;;13.57;74.08;99387.61;108025;1254;62034;-68
2023/10/08 00:12:41;;;;;;;3.50;1.20;;;;;;;13.52;74.12;99384.29;108169;1253;60375;-70
2023/10/08 00:15:10;;;;;;;3.70;1.30;;;;;;;13.50;74.37;99371.30;108127;1253;73437;-70
2023/10/08 00:17:37;;;;;;;4.30;1.50;;;;;;;13.48;74.50;99365.66;108131;1254;72731;-70
2023/10/08 00:20:05;;;;;;;3.80;1.40;;;;;;;13.46;74.56;99364.90;108133;1253;72697;-70
2023/10/08 00:22:35;;;;;;;4.40;1.70;;;;;;;13.42;74.91;99370.75;108171;1253;60367;-69
2023/10/08 00:25:11;;;;;;;4.30;1.30;;;;;;;13.38;74.93;99392.30;108165;1253;60332;-70
2023/10/08 00:27:38;;;;;;;4.30;1.60;;;;;;;13.32;74.70;99382.94;108124;1253;72738;-70
2023/10/08 00:30:17;;;;;;;4.40;1.60;;;;;;;13.30;74.88;99381.65;108284;1253;72564;-70
2023/10/08 00:32:44;;;;;;;6.10;1.60;;;;;;;13.26;74.84;99381.88;108139;1253;72469;-73
2023/10/08 00:35:15;;;;;;;3.90;1.40;;;;;;;13.25;74.88;99386.00;108078;1253;61734;-71
2023/10/08 00:37:41;;;;;;;4.00;1.40;;;;;;;13.21;74.98;99386.11;108127;1253;60310;-69
2023/10/08 00:40:12;;;;;;;4.10;1.60;;;;;;;13.16;74.87;99385.14;108121;1253;73663;-70
2023/10/08 00:42:45;;;;;;;4.50;1.60;;;;;;;13.13;74.85;99386.92;108161;1253;71832;-71
2023/10/08 00:45:16;;;;;;;3.90;1.50;;;;;;;13.11;74.82;99392.83;108132;1257;72535;-69
2023/10/08 00:47:43;;;;;;;4.80;1.60;;;;;;;13.08;74.81;99400.05;108114;1253;61732;-71
2023/10/08 00:50:20;;;;;;;4.40;1.60;;;;;;;13.06;74.73;99396.26;108160;1253;60325;-71
2023/10/08 00:52:59;;;;;;;3.20;1.20;;;;;;;13.03;74.44;99396.64;108194;1253;73556;-72
2023/10/08 00:55:30;;;;;;;4.90;1.60;;;;;;;12.99;74.02;99401.66;108087;1254;71419;-71
2023/10/08 00:57:58;;;;;;;4.70;1.70;;;;;;;12.92;73.36;99407.97;108186;1256;72942;-70
2023/10/08 01:00:32;;;;;;;5.90;1.40;;;;;;;12.85;71.95;99414.87;108200;1253;60431;-71
2023/10/08 01:03:02;;;;;;;5.60;1.60;;;;;;;12.76;70.23;99422.50;108170;1254;60455;-71
2023/10/08 01:05:47;;;;;;;6.20;1.40;;;;;;;12.62;67.18;99411.15;108160;1255;73659;-70
2023/10/08 01:11:46;;;;;;;3.70;1.40;;;;;;;12.40;62.19;99433.48;108113;1254;72672;-69
2023/10/08 01:14:12;;;;;;;4.20;1.50;;;;;;;12.28;58.85;99443.70;108155;1253;60195;-70
2023/10/08 01:16:44;;;;;;;5.10;1.50;;;;;;;12.20;57.68;99459.12;108095;1253;60842;-70
2023/10/08 01:19:14;;;;;;;5.20;1.40;;;;;;;12.07;57.29;99457.95;108104;1253;72547;-72
2023/10/08 01:21:41;;;;;;;4.20;1.20;;;;;;;11.89;58.28;99446.71;108175;1253;72594;-72
2023/10/08 01:24:08;;;;;;;3.60;1.30;;;;;;;11.64;59.21;99450.73;108164;1253;71281;-70
2023/10/08 01:26:38;;;;;;;4.90;1.50;;;;;;;11.41;60.26;99445.23;108256;1253;61851;-74
2023/10/08 01:29:11;;;;;;;3.90;1.30;;;;;;;11.21;61.47;99451.06;108129;1253;60568;-73
2023/10/08 01:31:38;;;;;;;5.70;1.80;;;;;;;11.06;62.26;99449.77;108202;1253;73739;-71
2023/10/08 01:34:06;;;;;;;3.10;1.30;;;;;;;10.93;62.38;99439.88;107829;1253;394477;-73
2023/10/08 01:36:36;;;;;;;4.50;1.50;;;;;;;10.87;63.17;99434.40;108218;1253;72484;-73
2023/10/08 01:39:02;;;;;;;5.90;1.40;;;;;;;10.80;63.79;99430.15;108125;1254;60957;-73
2023/10/08 01:41:30;;;;;;;5.00;1.20;;;;;;;10.74;64.13;99419.98;108170;1254;60349;-74
2023/10/08 01:44:00;;;;;;;4.00;1.60;;;;;;;10.69;64.50;99423.02;108117;1253;74233;-73
2023/10/08 01:46:27;;;;;;;4.70;1.90;;;;;;;10.65;64.64;99422.33;108113;1253;71686;-74
2023/10/08 01:49:08;;;;;;;5.00;1.50;;;;;;;10.59;64.53;99418.81;108099;1255;71350;-70
2023/10/08 01:51:39;;;;;;;4.80;1.60;;;;;;;10.54;64.42;99419.40;108202;1253;62050;-71
2023/10/08 01:54:11;;;;;;;3.30;1.30;;;;;;;10.51;64.36;99420.17;108152;1253;60337;-72
2023/10/08 01:56:43;;;;;;;4.20;1.60;;;;;;;10.51;64.42;99415.16;108154;1254;73957;-71
2023/10/08 01:59:11;;;;;;;4.00;1.20;;;;;;;10.51;64.65;99415.11;108142;1254;72773;-71
2023/10/08 02:01:38;;;;;;;6.20;1.60;;;;;;;10.50;64.66;99412.67;108152;1253;71149;-72
2023/10/08 02:04:09;;;;;;;3.30;1.10;;;;;;;10.49;64.61;99412.40;108056;1253;60444;-71
2023/10/08 02:06:36;;;;;;;4.50;1.60;;;;;;;10.49;64.35;99414.11;108147;1254;59475;-73
2023/10/08 02:09:07;;;;;;;4.10;1.40;;;;;;;10.49;64.45;99413.14;108134;1258;73679;-72
2023/10/08 02:11:50;;;;;;;5.40;1.60;;;;;;;10.49;64.34;99418.70;108209;1253;72124;-72
2023/10/08 02:14:18;;;;;;;3.80;1.40;;;;;;;10.50;64.54;99419.34;108098;1257;71630;-70
2023/10/08 02:16:45;;;;;;;4.70;1.50;;;;;;;10.51;64.72;99421.40;108108;1253;60865;-72
2023/10/08 02:19:13;;;;;;;4.30;1.40;;;;;;;10.52;64.72;99417.38;108124;1253;60976;-71
2023/10/08 02:21:40;;;;;;;4.40;1.40;;;;;;;10.53;64.77;99412.27;108183;1253;73642;-72
2023/10/08 02:24:08;;;;;;;3.40;1.30;;;;;;;10.55;64.89;99405.77;108146;1254;71434;-72
2023/10/08 02:26:35;;;;;;;7.10;1.20;;;;;;;10.56;64.62;99401.39;108130;1253;72451;-72
2023/10/08 02:29:10;;;;;;;5.40;1.30;;;;;;;10.56;64.65;99402.61;108169;1253;61967;-71
2023/10/08 02:31:38;;;;;;;4.20;1.30;;;;;;;10.56;64.73;99402.39;108160;1253;60500;-71
2023/10/08 02:34:07;;;;;;;4.30;1.40;;;;;;;10.58;64.95;99396.67;108215;1256;73744;-70
2023/10/08 02:36:40;;;;;;;3.80;1.40;;;;;;;10.58;64.90;99400.73;108161;1252;72930;-71
2023/10/08 02:39:25;;;;;;;4.40;1.30;;;;;;;10.59;64.86;99403.16;108175;1253;72732;-70
2023/10/08 02:41:55;;;;;;;5.20;1.20;;;;;;;10.59;64.46;99405.77;108083;1256;62021;-72
2023/10/08 02:44:22;;;;;;;3.20;1.30;;;;;;;10.61;64.58;99409.17;108289;1254;60298;-71
2023/10/08 02:46:49;;;;;;;4.40;1.60;;;;;;;10.63;64.58;99406.80;108090;1254;72565;-72
2023/10/08 02:49:20;;;;;;;3.90;1.50;;;;;;;10.63;64.84;99403.34;108113;1254;72548;-71
2023/10/08 02:51:50;;;;;;;4.10;1.30;;;;;;;10.64;64.74;99408.98;108097;1253;72464;-72
2023/10/08 02:54:18;;;;;;;4.60;1.60;;;;;;;10.66;64.58;99405.39;108171;1253;62124;-71
2023/10/08 02:56:51;;;;;;;5.30;1.30;;;;;;;10.68;64.57;99416.52;108224;1253;60281;-73
2023/10/08 02:59:22;;;;;;;5.00;1.70;;;;;;;10.67;64.66;99414.14;108096;1253;73953;-70
2023/10/08 03:01:55;;;;;;;4.00;1.50;;;;;;;10.67;64.48;99420.00;108200;1256;71278;-72
2023/10/08 03:04:22;;;;;;;4.70;1.60;;;;;;;10.67;64.42;99426.73;108174;1253;72478;-72
2023/10/08 03:06:49;;;;;;;2.80;1.40;;;;;;;10.68;64.46;99433.02;108197;1253;60461;-71
2023/10/08 03:09:20;;;;;;;4.80;1.50;;;;;;;10.67;64.46;99431.60;108177;1253;60980;-70
2023/10/08 03:11:48;;;;;;;5.60;1.60;;;;;;;10.67;64.24;99427.80;108182;1253;72664;-72
2023/10/08 03:14:21;;;;;;;4.10;1.50;;;;;;;10.67;64.14;99431.22;108237;1253;71302;-71
2023/10/08 03:16:52;;;;;;;4.10;1.40;;;;;;;10.66;63.99;99434.17;108173;1257;72452;-72
2023/10/08 03:19:22;;;;;;;3.10;1.30;;;;;;;10.66;64.16;99435.20;108060;1253;60853;-70
2023/10/08 03:21:56;;;;;;;4.50;1.30;;;;;;;10.67;64.18;99436.34;108123;1253;60454;-71
2023/10/08 03:27:20;;;;;;;4.20;1.30;;;;;;;10.68;63.74;99435.91;108155;1254;72447;-71
2023/10/08 03:29:47;;;;;;;3.60;1.20;;;;;;;10.70;64.03;99443.05;108190;1253;73317;-72
2023/10/08 03:32:17;;;;;;;4.60;1.70;;;;;;;10.70;63.91;99446.62;108175;1253;60401;-71
2023/10/08 03:34:46;;;;;;;4.90;1.60;;;;;;;10.71;63.78;99444.30;108218;1253;60323;-71
2023/10/08 03:37:21;;;;;;;4.40;1.50;;;;;;;10.70;63.75;99447.31;108138;1253;73630;-71
2023/10/08 03:39:51;;;;;;;4.60;1.60;;;;;;;10.70;63.64;99439.67;108138;1253;72787;-72
2023/10/08 03:42:25;;;;;;;5.60;1.50;;;;;;;10.71;63.79;99436.45;108194;1253;72788;-71
2023/10/08 03:44:52;;;;;;;5.10;1.60;;;;;;;10.71;63.77;99434.06;108144;1253;62076;-72
2023/10/08 03:47:22;;;;;;;5.80;1.70;;;;;;;10.70;63.48;99434.34;108145;1253;60638;-73
2023/10/08 03:49:50;;;;;;;6.10;1.50;;;;;;;10.72;63.58;99435.48;108091;1253;73529;-70
2023/10/08 03:52:23;;;;;;;4.30;1.60;;;;;;;10.71;63.64;99434.80;108183;1253;72544;-71
2023/10/08 03:55:04;;;;;;;5.00;1.40;;;;;;;10.70;63.67;99432.42;108052;1253;72663;-74
2023/10/08 03:57:56;;;;;;;6.70;1.60;;;;;;;10.69;63.88;99437.45;108163;1253;61800;-72
2023/10/08 04:00:28;;;;;;;4.70;1.50;;;;;;;10.66;63.85;99436.69;108191;1258;60360;-72
2023/10/08 04:03:00;;;;;;;3.70;1.30;;;;;;;10.64;63.73;99438.57;108161;1254;72476;-72
2023/10/08 04:05:32;;;;;;;3.80;1.50;;;;;;;10.64;63.69;99447.02;108134;1254;72849;-71
2023/10/08 04:13:09;;;;;;;4.80;1.60;;;;;;;10.63;63.68;99450.77;108089;1253;60285;-71
2023/10/08 04:15:40;;;;;;;3.90;1.70;;;;;;;10.61;63.70;99457.24;108165;1253;71569;-71
2023/10/08 04:18:11;;;;;;;4.90;1.80;;;;;;;10.61;63.56;99463.71;108225;1253;72559;-71
2023/10/08 04:20:38;;;;;;;6.60;1.60;;;;;;;10.62;63.47;99472.77;108139;1254;72485;-71
2023/10/08 04:23:13;;;;;;;3.80;1.50;;;;;;;10.62;63.51;99476.03;108104;1254;60446;-70
2023/10/08 04:25:43;;;;;;;5.00;1.30;;;;;;;10.60;63.40;99478.36;108153;1253;60266;-71
2023/10/08 04:28:15;;;;;;;6.40;1.40;;;;;;;10.59;63.18;99477.67;108529;1253;73853;-71
2023/10/08 04:30:43;;;;;;;5.10;1.60;;;;;;;10.55;62.81;99484.27;108188;1253;72557;-70
2023/10/08 04:33:13;;;;;;;4.90;1.50;;;;;;;10.55;62.71;99488.54;108161;1253;72690;-72
2023/10/08 04:35:56;;;;;;;4.50;1.30;;;;;;;10.55;62.65;99493.98;108179;1253;61912;-70
2023/10/08 04:38:28;;;;;;;3.60;1.40;;;;;;;10.55;62.48;99494.56;108289;1254;60337;-71
2023/10/08 04:41:01;;;;;;;5.60;1.70;;;;;;;10.57;62.43;99499.16;108117;1253;72480;-72
2023/10/08 04:43:30;;;;;;;5.80;1.40;;;;;;;10.58;62.42;99508.48;108199;1253;72833;-71
2023/10/08 04:45:57;;;;;;;4.80;1.30;;;;;;;10.61;62.29;99517.11;108150;1253;72730;-72
2023/10/08 04:48:26;;;;;;;4.00;1.50;;;;;;;10.63;62.17;99517.83;108247;1253;60447;-72
2023/10/08 04:50:59;;;;;;;5.60;1.50;;;;;;;10.65;62.05;99515.25;108219;1257;60887;-71
2023/10/08 04:53:36;;;;;;;3.20;1.30;;;;;;;10.67;61.67;99517.16;108218;1257;72458;-70
2023/10/08 04:56:05;;;;;;;5.40;1.50;;;;;;;10.68;61.23;99517.30;108186;1253;72627;-72
2023/10/08 04:58:33;;;;;;;5.00;1.40;;;;;;;10.70;61.03;99513.34;108180;1253;72879;-72
2023/10/08 05:01:17;;;;;;;4.10;1.20;;;;;;;10.72;60.35;99515.66;108218;1253;60325;-73
2023/10/08 05:17:11;;;;;;;3.60;1.20;;;;;;;10.79;53.42;99512.38;108139;1256;60274;-70
2023/10/08 05:22:18;;;;;;;8.00;1.20;;;;;;;10.83;52.02;99505.95;108242;1253;71387;-72
2023/10/08 05:25:10;;;;;;;2.60;1.00;;;;;;;10.85;51.92;99513.77;108300;1253;72760;-72
2023/10/08 05:27:56;;;;;;;3.00;0.90;;;;;;;10.88;51.67;99528.85;108198;1253;60418;-72
2023/10/08 05:30:41;;;;;;;3.50;0.90;;;;;;;10.91;51.02;99544.31;108203;1253;60173;-72
2023/10/08 05:33:49;;;;;;;3.20;1.00;;;;;;;10.95;50.54;99556.40;108250;1253;73652;-71
2023/10/08 05:36:27;;;;;;;4.30;1.10;;;;;;;10.96;49.80;99557.46;108314;1253;71477;-72
2023/10/08 05:39:00;;;;;;;3.00;1.00;;;;;;;10.96;49.99;99560.98;108259;1253;72554;-72
2023/10/08 05:41:30;;;;;;;2.80;1.10;;;;;;;10.97;49.82;99559.31;108259;1253;60393;-73
2023/10/08 05:44:14;;;;;;;4.50;1.10;;;;;;;11.00;49.73;99565.53;108234;1253;60225;-73
2023/10/08 05:46:56;;;;;;;4.30;0.90;;;;;;;11.04;49.89;99573.63;108314;1253;73753;-71
2023/10/08 05:49:38;;;;;;;;;;;;;;;11.06;48.80;99578.19;108195;1253;71472;-72
2023/10/08 06:02:39;;;;;;;4.40;1.30;;;;;;;11.10;47.80;99574.78;108146;1256;72579;-72
2023/10/08 06:13:09;;;;;;;3.10;0.90;;;;;;;11.12;45.66;99588.29;108561;1259;73571;-70
2023/10/08 06:15:47;;;;;;;2.70;1.00;;;;;;;11.12;44.77;99591.34;108210;1253;70991;-70
2023/10/08 06:18:19;;;;;;;2.90;0.80;;;;;;;11.12;44.84;99586.78;108088;1258;72567;-72
2023/10/08 06:20:46;;;;;;;2.40;0.90;;;;;;;11.11;44.77;99580.55;108076;1253;60285;-72
2023/10/08 06:23:18;;;;;;;5.80;1.10;;;;;;;11.09;44.67;99572.61;108187;1253;60389;-71
2023/10/08 06:26:05;;;;;;;2.90;1.00;;;;;;;11.03;44.61;99579.40;108404;1255;75008;-72
2023/10/08 06:28:34;;;;;;;3.00;0.90;;;;;;;11.00;44.43;99599.27;108616;1253;75226;-71
2023/10/08 06:31:06;;;;;;;2.80;1.00;;;;;;;10.99;44.37;99595.79;108163;1253;72790;-72
2023/10/08 06:33:33;;;;;;;4.60;1.00;;;;;;;11.01;44.79;99598.49;108259;1253;60345;-71
2023/10/08 06:36:13;;;;;;;2.30;0.90;;;;;;;11.02;44.51;99608.27;108211;1253;60278;-72
2023/10/08 06:38:44;;;;;;;2.80;0.70;;;;;;;11.03;45.14;99611.78;108297;1253;73658;-71
2023/10/08 06:41:17;;;;;;;3.90;1.00;;;;;;;11.03;45.26;99615.15;108294;1253;71488;-71
2023/10/08 06:44:14;;;;;;;3.60;0.90;;;;;;;11.03;45.94;99605.91;108192;1253;72661;-72
2023/10/08 06:46:41;;;;;;;2.50;0.80;;;;;;;11.03;46.23;99609.45;108216;1253;59648;-72
2023/10/08 06:49:11;;;;;;;2.00;0.80;;;;;;;11.03;46.90;99620.60;108272;1253;60297;-71
2023/10/08 06:51:41;;;;;;;3.60;0.80;;;;;;;11.06;47.11;99625.98;108302;1253;74738;-72
2023/10/08 06:54:10;;;;;;;3.20;1.00;;;;;;;11.09;47.40;99630.13;108288;1253;72890;-70
2023/10/08 06:56:38;;;;;;;2.40;1.00;;;;;;;11.11;47.34;99634.11;108214;1253;71258;-70
2023/10/08 06:59:05;;;;;;;3.60;1.00;;;;;;;11.13;46.89;99637.04;108238;1253;60413;-71
2023/10/08 07:01:47;;;;;;;3.10;1.20;;;;;;;11.13;46.68;99644.89;108247;1253;59738;-73
2023/10/08 07:04:14;;;;;;;3.60;1.10;;;;;;;11.12;46.59;99649.44;108253;1252;72661;-72
2023/10/08 07:06:42;;;;;;;4.20;1.20;;;;;;;11.14;46.95;99642.36;108164;1253;71237;-72
2023/10/08 07:09:28;;;;;;;5.00;1.10;;;;;;;11.15;46.63;99647.70;108229;1254;72486;-72
2023/10/08 07:11:56;;;;;;;3.00;1.00;;;;;;;11.15;46.53;99647.20;108203;1254;60356;-70
2023/10/08 07:14:27;;;;;;;2.90;0.90;;;;;;;11.15;46.61;99650.14;108303;1253;60466;-73
2023/10/08 07:16:58;;;;;;;3.20;1.00;;;;;;;11.14;47.06;99661.70;108263;1253;72667;-71
2023/10/08 07:19:40;;;;;;;4.90;1.20;;;;;;;11.15;46.78;99658.05;108245;1253;72725;-70
2023/10/08 07:22:22;;;;;;;2.70;0.90;;;;;;;11.16;46.48;99656.40;108175;1253;71146;-70
2023/10/08 07:24:50;;;;;;;2.70;0.80;;;;;;;11.16;45.92;99665.16;108231;1253;59510;-72
2023/10/08 07:27:31;;;;;;;4.70;1.10;;;;;;;11.17;45.70;99657.23;108245;1253;61124;-72
2023/10/08 07:30:01;;;;;;;3.40;1.00;;;;;;;11.17;45.11;99659.59;108264;1253;73244;-70
2023/10/08 07:32:30;;;;;;;3.60;1.00;;;;;;;11.15;44.77;99654.41;108258;1253;72647;-72
2023/10/08 07:35:23;;;;;;;4.10;0.80;;;;;;;11.14;45.21;99661.23;108141;1255;72454;-70
2023/10/08 07:37:50;;;;;;;3.90;1.00;;;;;;;11.11;45.73;99671.40;108148;1255;61103;-72
2023/10/08 07:40:17;;;;;;;2.60;1.00;;;;;;;11.10;45.88;99677.14;108127;1256;61115;-71
2023/10/08 07:42:44;;;;;;;3.20;0.90;;;;;;;11.07;46.16;99677.55;108216;1253;74695;-73
2023/10/08 07:45:17;;;;;;;3.60;1.10;;;;;;;11.03;46.13;99676.23;108263;1253;71620;-72
2023/10/08 07:47:44;;;;;;;3.50;1.00;;;;;;;11.02;46.10;99679.61;108122;1253;71487;-70
2023/10/08 07:50:12;;;;;;;3.60;1.00;;;;;;;11.04;46.44;99687.02;108260;1253;61118;-72
2023/10/08 07:52:44;;;;;;;6.10;1.20;;;;;;;11.09;46.37;99690.67;108231;1257;61083;-72
2023/10/08 07:55:17;;;;;;;3.70;0.90;;;;;;;11.12;46.06;99680.33;108223;1253;74393;-72
2023/10/08 07:57:44;;;;;;;3.40;0.90;;;;;;;11.15;45.52;99689.23;108017;1253;74570;-70
2023/10/08 08:00:18;;;;;;;2.80;0.90;;;;;;;11.14;45.63;99681.42;108217;1257;72435;-72
2023/10/08 08:02:45;;;;;;;3.80;1.20;;;;;;;11.15;45.70;99686.38;108227;1253;61103;-73
2023/10/08 08:05:16;;;;;;;2.90;0.90;;;;;;;11.18;46.24;99687.64;108240;1253;60019;-70
2023/10/08 08:07:46;;;;;;;2.50;0.80;;;;;;;11.23;46.37;99684.77;108127;1253;74627;-72
2023/10/08 08:10:14;;;;;;;3.90;1.20;;;;;;;11.27;45.87;99683.80;108177;1253;73027;-73
2023/10/08 08:12:42;;;;;;;3.00;1.00;;;;;;;11.29;46.11;99677.06;108159;1253;72700;-72
2023/10/08 08:15:15;;;;;;;3.60;0.80;;;;;;;11.31;45.55;99683.08;108093;1255;61056;-71
2023/10/08 08:17:43;;;;;;;3.90;1.00;;;;;;;11.32;45.46;99683.02;108049;1255;61900;-71
2023/10/08 08:20:22;;;;;;;2.40;0.80;;;;;;;11.37;45.87;99674.26;108104;1256;73262;-70
2023/10/08 08:22:54;;;;;;;4.30;1.00;;;;;;;11.46;46.37;99675.48;108108;1253;72756;-71
2023/10/08 08:25:33;;;;;;;1.50;0.70;;;;;;;11.58;46.21;99675.26;108067;1256;71276;-71
2023/10/08 08:28:00;;;;;;;3.20;0.90;;;;;;;11.69;45.59;99681.34;108241;1253;61139;-71
2023/10/08 08:30:27;;;;;;;3.50;1.10;;;;;;;11.75;44.98;99672.45;108265;1253;60075;-71
2023/10/08 08:32:56;;;;;;;3.20;0.90;;;;;;;11.72;44.88;99676.05;108131;1256;74636;-72
2023/10/08 08:35:23;;;;;;;2.80;0.90;;;;;;;11.65;45.00;99670.46;108205;1254;72720;-72
2023/10/08 08:37:50;;;;;;;3.70;1.10;;;;;;;11.59;45.34;99681.31;108222;1253;72525;-71
2023/10/08 08:40:24;;;;;;;4.30;1.20;;;;;;;11.60;45.45;99668.60;108245;1253;61328;-70
2023/10/08 08:42:56;;;;;;;4.20;1.10;;;;;;;11.64;45.25;99684.02;108130;1254;61238;-68
2023/10/08 08:45:26;;;;;;;2.40;0.80;;;;;;;11.72;44.59;99691.58;108080;1258;73682;-70
2023/10/08 08:47:53;;;;;;;3.90;1.30;;;;;;;11.82;44.77;99698.20;108155;1253;72979;-71
2023/10/08 08:50:21;;;;;;;3.50;0.90;;;;;;;11.96;45.29;99687.04;108235;1253;71339;-70
2023/10/08 08:52:47;;;;;;;3.90;1.20;;;;;;;12.15;45.38;99683.25;108278;1253;61120;-70
2023/10/08 08:55:16;;;;;;;2.40;0.90;;;;;;;12.30;44.44;99679.19;108250;1253;61421;-71
2023/10/08 08:57:50;;;;;;;3.40;1.00;;;;;;;12.40;44.04;99678.98;108257;1253;74486;-72
2023/10/08 09:00:18;;;;;;;5.00;1.10;;;;;;;12.47;42.99;99671.24;108211;1256;72704;-71
2023/10/08 09:02:47;;;;;;;3.10;1.00;;;;;;;12.51;43.21;99666.95;108266;1253;71994;-70
2023/10/08 09:05:35;;;;;;;3.00;0.90;;;;;;;12.54;43.29;99666.25;108275;1253;61013;-70
2023/10/08 09:08:04;;;;;;;2.90;0.80;;;;;;;12.66;43.00;99671.10;108369;1253;60186;-71
2023/10/08 09:10:36;;;;;;;3.80;1.10;;;;;;;12.75;42.85;99667.79;108228;1254;74686;-71
2023/10/08 09:13:05;;;;;;;3.30;1.00;;;;;;;12.80;43.23;99667.70;108221;1253;72667;-69
2023/10/08 09:15:36;;;;;;;2.80;0.90;;;;;;;12.87;43.69;99670.97;108248;1253;72373;-69
2023/10/08 09:18:04;;;;;;;3.20;1.10;;;;;;;12.99;43.46;99680.49;108140;1253;61263;-70
2023/10/08 09:20:34;;;;;;;2.30;1.10;;;;;;;13.01;41.86;99689.61;108230;1257;61246;-72
2023/10/08 09:23:12;;;;;;;4.10;1.10;;;;;;;12.91;40.86;99681.69;108198;1256;74793;-73
2023/10/08 09:25:43;;;;;;;2.50;1.00;;;;;;;12.78;40.66;99675.51;108187;1253;72833;-72
2023/10/08 09:28:12;;;;;;;3.50;0.90;;;;;;;12.73;41.22;99677.85;108197;1253;72523;-72
2023/10/08 09:30:44;;;;;;;3.30;1.00;;;;;;;12.70;40.64;99683.75;108198;1253;61152;-71
2023/10/08 09:33:12;;;;;;;3.00;0.90;;;;;;;12.72;40.53;99673.69;108119;1254;60974;-71
2023/10/08 09:35:39;;;;;;;2.20;0.80;;;;;;;12.84;39.28;99678.90;108195;1256;74794;-70
2023/10/08 09:38:11;;;;;;;2.10;0.80;;;;;;;12.94;37.51;99677.77;108126;1254;72983;-70
2023/10/08 09:40:40;;;;;;;3.40;0.90;;;;;;;12.99;38.04;99667.19;108259;1253;72706;-70
2023/10/08 09:43:09;;;;;;;2.60;1.00;;;;;;;13.04;38.50;99672.73;108282;1256;61114;-70
2023/10/08 09:45:38;;;;;;;2.80;0.80;;;;;;;13.10;37.72;99676.59;108089;1254;61138;-71
2023/10/08 09:48:07;;;;;;;2.60;0.80;;;;;;;13.07;38.15;99667.42;108098;1253;75338;-70
2023/10/08 09:50:37;;;;;;;4.20;1.00;;;;;;;13.09;38.62;99675.31;108196;1253;71682;-70
2023/10/08 09:53:22;;;;;;;4.80;0.90;;;;;;;13.07;37.96;99662.27;108083;1258;72501;-70
2023/10/08 09:55:56;;;;;;;2.20;0.90;;;;;;;13.08;38.24;99666.88;108157;1253;61248;-69
2023/10/08 09:58:24;;;;;;;3.50;1.00;;;;;;;13.11;38.35;99672.59;108317;1257;61135;-72
2023/10/08 10:00:51;;;;;;;2.40;0.90;;;;;;;13.17;37.99;99666.00;108092;1259;74552;-70
2023/10/08 10:03:20;;;;;;;4.30;1.00;;;;;;;13.25;37.34;99681.44;108242;1253;72539;-72
2023/10/08 10:05:51;;;;;;;5.40;1.60;;;;;;;13.34;36.76;99677.46;108280;1253;72738;-71
2023/10/08 10:08:19;;;;;;;2.90;1.10;;;;;;;13.39;35.80;99676.32;108143;1253;61278;-69
2023/10/08 10:10:49;;;;;;;4.90;1.00;;;;;;;13.28;35.53;99675.71;108359;1253;61129;-71
2023/10/08 10:13:16;;;;;;;7.20;1.00;;;;;;;13.15;35.88;99684.34;108141;1258;74449;-70
2023/10/08 10:15:44;;;;;;;2.10;0.70;;;;;;;13.03;36.16;99679.11;108150;1258;72672;-70
2023/10/08 10:18:26;;;;;;;3.40;1.10;;;;;;;12.91;36.44;99677.87;108129;1254;72737;-71
2023/10/08 10:21:00;;;;;;;2.50;0.80;;;;;;;12.86;36.57;99672.06;108082;1253;61110;-70
2023/10/08 10:23:42;;;;;;;2.00;0.80;;;;;;;12.81;35.67;99678.14;108149;1253;61083;-71
2023/10/08 10:26:33;;;;;;;2.80;0.70;;;;;;;12.78;35.93;99674.81;108149;1255;74406;-71
2023/10/08 10:29:19;;;;;;;1.80;0.80;;;;;;;12.84;35.30;99667.05;108377;1257;72747;-70
2023/10/08 10:31:53;;;;;;;3.70;0.80;;;;;;;12.90;34.99;99674.45;108163;1253;71156;-70
2023/10/08 10:34:27;;;;;;;4.10;0.90;;;;;;;12.94;34.89;99681.21;108207;1254;61259;-71
2023/10/08 10:36:56;;;;;;;2.90;0.90;;;;;;;12.94;35.23;99672.68;108243;1253;59152;-70
2023/10/08 10:39:27;;;;;;;2.70;0.90;;;;;;;12.97;35.02;99677.30;108092;1254;74449;-71
2023/10/08 10:41:57;;;;;;;2.60;0.90;;;;;;;12.98;34.70;99683.45;108136;1257;72580;-69
2023/10/08 10:44:24;;;;;;;3.50;1.10;;;;;;;12.95;34.92;99682.48;108059;1255;71190;-71
2023/10/08 10:46:51;;;;;;;4.80;0.90;;;;;;;13.00;34.95;99674.40;108222;1254;61250;-72
2023/10/08 10:49:21;;;;;;;4.00;1.00;;;;;;;13.17;34.56;99681.89;108090;1252;61463;-71
2023/10/08 10:51:57;;;;;;;3.20;0.80;;;;;;;13.38;33.86;99675.95;78062;1259;20002165;-71
2023/10/08 10:54:24;;;;;;;4.50;0.90;;;;;;;13.55;33.47;99664.75;107930;1258;61024;-68
2023/10/08 10:57:05;;;;;;;4.20;0.90;;;;;;;13.65;33.14;99663.47;107965;1258;61322;-69
2023/10/08 10:59:37;;;;;;;2.60;0.80;;;;;;;13.69;32.80;99669.95;108095;1253;73680;-70
2023/10/08 11:02:20;;;;;;;4.20;0.90;;;;;;;13.76;32.85;99661.90;108132;1254;72525;-70
2023/10/08 11:04:47;;;;;;;2.00;0.80;;;;;;;13.88;33.18;99662.67;108058;1253;72705;-70
2023/10/08 11:07:16;;;;;;;3.90;0.90;;;;;;;13.98;32.49;99665.64;107924;1253;61500;-69
2023/10/08 11:09:44;;;;;;;3.30;0.70;;;;;;;13.91;32.03;99659.56;108055;1257;61199;-70
2023/10/08 11:12:14;;;;;;;3.10;0.70;;;;;;;13.74;32.37;99665.39;107989;1256;73037;-69
2023/10/08 11:14:41;;;;;;;2.80;0.70;;;;;;;13.54;32.37;99665.83;108657;1254;72730;-69
2023/10/08 11:17:15;;;;;;;5.80;1.10;;;;;;;13.33;31.91;99668.64;108759;1254;72554;-71
2023/10/08 11:19:47;;;;;;;1.70;0.80;;;;;;;13.11;31.44;99669.21;108100;1253;59438;-68
2023/10/08 11:22:22;;;;;;;4.20;0.80;;;;;;;13.03;31.46;99669.48;108031;1254;61098;-70
2023/10/08 11:24:53;;;;;;;3.00;1.00;;;;;;;13.05;31.19;99678.08;108077;1254;74880;-69
2023/10/08 11:27:29;;;;;;;3.20;0.80;;;;;;;13.14;31.23;99672.34;108214;1254;72501;-71
2023/10/08 11:29:57;;;;;;;2.10;0.80;;;;;;;13.22;31.87;99670.81;108125;1253;71162;-70
2023/10/08 11:32:27;;;;;;;3.30;1.10;;;;;;;13.31;32.31;99665.02;108240;1253;61252;-69
2023/10/08 11:35:01;;;;;;;1.80;0.70;;;;;;;13.42;31.02;99674.65;108058;1257;61250;-69
2023/10/08 11:37:33;;;;;;;2.50;0.70;;;;;;;13.48;30.94;99675.87;108364;1252;73791;-70
2023/10/08 11:40:09;;;;;;;1.30;0.60;;;;;;;13.58;30.22;99662.52;108340;1252;72625;-70
2023/10/08 16:08:37;;;;;;;3.90;1.10;;;;;;;10.43;36.23;99816.55;105638;1288;614190;-71
2023/10/08 16:11:05;;;;;;;4.40;1.10;;;;;;;10.76;35.62;99809.77;107064;1267;170655;-69
2023/10/08 16:13:33;;;;;;;3.40;0.90;;;;;;;10.71;35.46;99810.41;107175;1267;59478;-70
2023/10/08 16:16:00;;;;;;;2.70;0.80;;;;;;;10.65;35.87;99810.61;107149;1267;72017;-70
2023/10/08 16:18:28;;;;;;;6.30;1.10;;;;;;;10.60;35.93;99818.56;107122;1266;70234;-70
2023/10/08 16:20:56;;;;;;;3.20;0.90;;;;;;;10.53;36.00;99820.66;107156;1267;71564;-69
2023/10/08 16:23:24;;;;;;;3.20;1.00;;;;;;;10.48;36.20;99816.24;107180;1267;60287;-71
2023/10/08 16:25:53;;;;;;;6.60;1.20;;;;;;;10.45;36.36;99813.71;107103;1267;59347;-72
2023/10/08 16:28:22;;;;;;;2.70;0.80;;;;;;;10.40;36.52;99814.21;107189;1270;71277;-70
2023/10/08 16:30:53;;;;;;;7.90;1.20;;;;;;;10.36;36.77;99814.98;107102;1267;73224;-70
2023/10/08 16:33:24;;;;;;;1.70;0.90;;;;;;;10.31;36.70;99809.13;92152;1267;20002662;-71
2023/10/08 16:35:52;;;;;;;5.00;1.20;;;;;;;10.26;36.74;99809.94;100168;1257;10002382;-70
2023/10/08 16:38:19;;;;;;;3.40;1.20;;;;;;;10.23;37.06;99809.06;107757;1257;61230;-70
2023/10/08 16:40:48;;;;;;;5.90;2.70;;;;;;;10.20;37.19;99814.73;107730;1258;59627;-70
2023/10/08 16:43:16;;;;;;;9.30;2.30;;;;;;;10.17;37.12;99819.43;107643;1257;73074;-70
2023/10/08 16:45:44;;;;;;;7.70;2.60;;;;;;;10.13;37.34;99816.30;108544;1257;72761;-71
2023/10/08 16:48:15;;;;;;;8.10;3.10;;;;;;;10.09;37.61;99816.58;107580;1256;71563;-70
2023/10/08 16:50:43;;;;;;;8.80;2.70;;;;;;;10.05;37.79;99820.77;107649;1260;59273;-71
2023/10/08 16:53:11;;;;;;;7.40;2.30;;;;;;;9.99;37.87;99824.73;107713;1257;59526;-70
2023/10/08 16:55:38;;;;;;;8.60;2.30;;;;;;;9.92;38.12;99830.66;107696;1257;72172;-70
2023/10/08 16:58:06;;;;;;;6.90;1.90;;;;;;;9.85;38.38;99836.38;107584;1256;71623;-69